Birkbeck, Illinois
Current Conditions -  °F | °C
As of 1:15 PM on Friday 24 Oct 2014 (Local Time) from KAAA Reporting Station
Scattered Clouds Scattered Clouds  
Wind Chill: 19°   Ceiling: Unl
Heat Index: 19°   Visibility: 10mi
Dew Point: 13°   Wind: 7mph
Humidity: 68%   Direction: 210°SSW
Pressure: 30.04"   Gusts: NA
Location:  40.143°N, 88.9637°W
Report Text: KAAA 241815Z AUTO 21006KT 10SM SCT019 19/13 A3004 RMK AO2 T01910131
Loading
Personal Weather Stations






























Interactive Weather Map
Tropical Storm Tracking
New forecast layout! Learn more

10-Day Weather Forecast

Advertisements
Track Severe Weather on mobile